createdAt,value
2018-12-19T00:01:08.923Z,6.15
2018-12-19T00:03:44.699Z,6.92
2018-12-19T00:06:24.670Z,7.78
2018-12-19T00:08:55.981Z,7.95
2018-12-19T00:11:27.132Z,8.75
2018-12-19T00:14:01.916Z,8.38
2018-12-19T00:16:31.127Z,6.05
2018-12-19T00:19:00.000Z,6.67
2018-12-19T00:21:40.588Z,6.60
2018-12-19T00:24:14.636Z,8.45
2018-12-19T00:26:44.101Z,7.53
2018-12-19T00:29:19.402Z,8.38
2018-12-19T00:31:50.645Z,9.03
2018-12-19T00:34:28.601Z,15.08
2018-12-19T00:36:59.677Z,10.70
2018-12-19T00:39:30.478Z,10.30
2018-12-19T00:42:01.617Z,15.05
2018-12-19T00:44:42.085Z,9.15
2018-12-19T00:47:10.535Z,7.92
2018-12-19T00:49:41.577Z,7.45
2018-12-19T00:52:12.915Z,13.95
2018-12-19T00:54:41.983Z,11.63
2018-12-19T00:57:12.936Z,8.00
2018-12-19T00:59:44.202Z,9.80
2018-12-19T01:02:15.116Z,9.45
2018-12-19T01:04:48.251Z,8.38
2018-12-19T01:07:22.379Z,8.63
2018-12-19T01:09:51.066Z,9.23
2018-12-19T01:12:32.991Z,7.75
2018-12-19T01:15:04.733Z,12.73
2018-12-19T01:17:42.296Z,10.20
2018-12-19T01:20:10.644Z,7.92
2018-12-19T01:22:44.399Z,9.50
2018-12-19T01:25:12.842Z,9.20
2018-12-19T01:27:46.558Z,9.45
2018-12-19T01:30:20.577Z,12.58
2018-12-19T01:32:51.104Z,9.83
2018-12-19T01:35:20.376Z,8.95
2018-12-19T01:37:51.578Z,11.25
2018-12-19T01:40:22.643Z,7.60
2018-12-19T01:42:53.865Z,11.33
2018-12-19T01:45:25.069Z,11.12
2018-12-19T01:47:54.072Z,7.53
2018-12-19T01:50:27.670Z,11.78
2018-12-19T01:52:56.257Z,9.33
2018-12-19T01:55:27.301Z,11.00
2018-12-19T01:58:04.772Z,12.95
2018-12-19T02:00:38.313Z,12.28
2018-12-19T02:03:09.550Z,14.53
2018-12-19T02:05:40.529Z,13.00
2018-12-19T02:08:11.749Z,11.05
2018-12-19T02:10:40.592Z,10.93
2018-12-19T02:13:14.338Z,12.95
2018-12-19T02:15:43.587Z,12.50
2018-12-19T02:18:14.375Z,13.25
2018-12-19T02:20:45.564Z,15.35
2018-12-19T02:23:19.394Z,12.70
2018-12-19T02:25:52.662Z,9.33
2018-12-19T02:28:23.939Z,10.70
2018-12-19T02:30:57.648Z,11.15
2018-12-19T02:33:28.957Z,9.98
2018-12-19T02:36:00.075Z,12.15
2018-12-19T02:38:29.120Z,11.20
2018-12-19T02:40:59.466Z,9.95
2018-12-19T02:43:28.609Z,11.05
2018-12-19T02:46:00.009Z,15.10
2018-12-19T02:48:33.536Z,11.57
2018-12-19T02:51:04.090Z,11.63
2018-12-19T02:53:35.354Z,11.28
2018-12-19T02:56:11.699Z,8.98
2018-12-19T02:58:44.722Z,12.98
2018-12-19T03:01:13.729Z,11.70
2018-12-19T03:03:44.760Z,12.20
2018-12-19T03:06:18.497Z,11.33
2018-12-19T03:08:53.568Z,9.00
2018-12-19T03:11:34.318Z,12.98
2018-12-19T03:14:04.956Z,14.28
2018-12-19T03:16:33.946Z,10.95
2018-12-19T03:19:11.586Z,9.60
2018-12-19T03:21:42.099Z,12.13
2018-12-19T03:24:15.870Z,9.80
2018-12-19T03:26:47.142Z,11.90
2018-12-19T03:29:18.081Z,11.30
2018-12-19T03:31:49.292Z,10.35
2018-12-19T03:34:20.256Z,15.40
2018-12-19T03:37:00.897Z,12.05
2018-12-19T03:39:31.234Z,8.48
2018-12-19T03:42:04.807Z,11.40
2018-12-19T03:44:38.127Z,9.38
2018-12-19T03:47:18.695Z,10.78
2018-12-19T03:49:58.877Z,16.60
2018-12-19T03:52:29.423Z,11.22
2018-12-19T03:55:00.693Z,11.70
2018-12-19T03:57:29.861Z,10.95
2018-12-19T04:00:00.643Z,9.85
2018-12-19T04:02:31.608Z,9.00
2018-12-19T04:05:00.573Z,8.73
2018-12-19T04:07:29.137Z,7.90
2018-12-19T04:10:00.398Z,10.78
2018-12-19T04:12:31.761Z,9.35
2018-12-19T04:15:02.449Z,10.23
2018-12-19T04:17:31.496Z,10.82
2018-12-19T04:20:00.610Z,7.83
2018-12-19T04:22:31.629Z,9.15
2018-12-19T04:24:59.977Z,13.08
2018-12-19T04:27:31.103Z,9.03
2018-12-19T04:30:01.980Z,10.28
2018-12-19T04:32:31.365Z,8.98
2018-12-19T04:35:02.335Z,14.13
2018-12-19T04:37:33.137Z,10.32
2018-12-19T04:40:15.631Z,8.93
2018-12-19T04:42:52.777Z,10.32
2018-12-19T04:45:21.969Z,9.58
2018-12-19T04:47:52.923Z,10.00
2018-12-19T04:50:23.568Z,9.50
2018-12-19T04:52:55.799Z,8.13
2018-12-19T04:55:24.679Z,10.80
2018-12-19T04:57:55.588Z,8.18
2018-12-19T05:00:29.399Z,7.80
2018-12-19T05:03:03.037Z,9.20
2018-12-19T05:05:34.319Z,9.88
2018-12-19T05:08:05.183Z,9.70
2018-12-19T05:10:35.641Z,8.88
2018-12-19T05:13:04.476Z,8.95
2018-12-19T05:15:35.575Z,10.72
2018-12-19T05:18:06.455Z,10.65
2018-12-19T05:20:40.320Z,9.95
2018-12-19T05:23:10.706Z,10.38
2018-12-19T05:25:48.257Z,7.37
2018-12-19T05:28:19.492Z,8.65
2018-12-19T05:30:48.342Z,11.28
2018-12-19T05:33:19.289Z,7.78
2018-12-19T05:35:48.139Z,9.03
2018-12-19T05:38:21.790Z,8.85
2018-12-19T05:40:50.951Z,10.40
2018-12-19T05:43:21.990Z,12.60
2018-12-19T05:45:53.025Z,9.75
2018-12-19T05:48:21.990Z,10.35
2018-12-19T05:50:53.194Z,11.00
2018-12-19T05:53:24.046Z,10.38
2018-12-19T05:55:55.161Z,8.30
2018-12-19T05:58:26.200Z,8.83
2018-12-19T06:00:59.902Z,8.98
2018-12-19T06:03:33.379Z,8.70
2018-12-19T06:11:55.119Z,10.50
2018-12-19T06:14:28.859Z,11.55
2018-12-19T06:17:17.642Z,13.85
2018-12-19T06:19:51.254Z,7.58
2018-12-19T06:22:24.970Z,8.75
2018-12-19T06:24:58.681Z,9.30
2018-12-19T06:27:29.922Z,9.65
2018-12-19T06:30:00.813Z,7.80
2018-12-19T06:32:31.977Z,7.87
2018-12-19T06:35:03.207Z,8.50
2018-12-19T06:40:33.411Z,15.20
2018-12-19T06:43:04.605Z,11.53
2018-12-19T06:45:33.335Z,9.63
2018-12-19T06:48:04.022Z,9.88
2018-12-19T06:50:34.905Z,7.58
2018-12-19T06:55:40.455Z,9.00
2018-12-19T06:58:09.589Z,6.55
2018-12-19T07:00:40.585Z,7.47
2018-12-19T07:03:11.638Z,10.30
2018-12-19T07:05:42.402Z,8.38
2018-12-19T07:08:13.351Z,8.28
2018-12-19T07:10:47.243Z,10.10
2018-12-19T07:13:18.228Z,9.33
2018-12-19T07:15:48.310Z,8.98
2018-12-19T07:18:21.970Z,11.53
2018-12-19T07:20:56.036Z,9.90
2018-12-19T07:23:26.932Z,9.55
2018-12-19T07:25:57.877Z,7.62
2018-12-19T07:28:31.587Z,5.97
2018-12-19T07:31:00.817Z,8.78
2018-12-19T07:33:38.361Z,8.98
2018-12-19T07:36:09.614Z,9.40
2018-12-19T07:38:38.751Z,9.03
2018-12-19T07:41:07.759Z,7.22
2018-12-19T07:43:38.721Z,6.28
2018-12-19T07:46:09.583Z,9.90
2018-12-19T07:48:40.666Z,7.53
2018-12-19T07:51:11.335Z,9.43
2018-12-19T07:53:42.504Z,12.10
2018-12-19T07:56:16.293Z,8.13
2018-12-19T07:58:47.119Z,8.43
2018-12-19T08:01:18.474Z,8.03
2018-12-19T08:03:47.355Z,7.85
2018-12-19T08:06:21.164Z,9.35
2018-12-19T08:08:52.433Z,9.28
2018-12-19T08:11:23.553Z,7.20
2018-12-19T08:13:54.303Z,7.40
2018-12-19T08:16:25.293Z,6.80
2018-12-19T08:18:56.481Z,9.20
2018-12-19T08:21:30.334Z,11.85
2018-12-19T08:24:01.407Z,10.50
2018-12-19T08:26:30.485Z,9.95
2018-12-19T08:29:04.303Z,8.28
2018-12-19T08:31:37.569Z,9.68
2018-12-19T08:34:08.610Z,9.33
2018-12-19T08:36:39.503Z,9.03
2018-12-19T08:39:10.556Z,11.85
2018-12-19T08:41:41.459Z,9.45
2018-12-19T08:44:12.683Z,10.38
2018-12-19T08:46:41.863Z,12.25
2018-12-19T08:49:12.769Z,11.15
2018-12-19T08:51:46.507Z,12.20
2018-12-19T08:54:15.746Z,11.78
2018-12-19T08:56:44.833Z,11.88
2018-12-19T08:59:13.894Z,10.15
2018-12-19T09:01:42.938Z,9.70
2018-12-19T09:04:12.009Z,12.75
2018-12-19T09:06:45.630Z,9.35
2018-12-19T09:09:14.697Z,9.40
2018-12-19T09:11:45.565Z,10.20
2018-12-19T09:14:16.507Z,13.40
2018-12-19T09:16:45.396Z,12.35
2018-12-19T09:19:14.251Z,9.15
2018-12-19T09:21:45.319Z,9.70
2018-12-19T09:24:16.244Z,9.55
2018-12-19T09:26:47.284Z,11.30
2018-12-19T09:29:18.530Z,12.03
2018-12-19T09:31:47.420Z,11.60
2018-12-19T09:34:16.272Z,11.38
2018-12-19T09:36:47.579Z,12.00
2018-12-19T09:39:16.436Z,11.20
2018-12-19T09:41:47.383Z,18.42
2018-12-19T09:44:21.147Z,14.43
2018-12-19T09:46:54.281Z,17.40
2018-12-19T09:49:24.664Z,13.25
2018-12-19T09:51:55.848Z,16.62
2018-12-19T09:54:29.620Z,12.65
2018-12-19T09:57:00.946Z,12.85
2018-12-19T09:59:34.563Z,10.45
2018-12-19T10:02:05.833Z,10.28
2018-12-19T10:04:36.774Z,9.03
2018-12-19T10:07:10.624Z,10.00
2018-12-19T10:09:44.600Z,11.65
2018-12-19T10:12:18.391Z,9.68
2018-12-19T10:14:47.335Z,9.20
2018-12-19T10:17:18.318Z,11.73
2018-12-19T10:19:49.452Z,11.60
2018-12-19T10:22:20.472Z,9.23
2018-12-19T10:24:56.502Z,7.65
2018-12-19T10:27:27.651Z,10.90
2018-12-19T10:29:58.920Z,9.03
2018-12-19T10:32:34.467Z,10.30
2018-12-19T10:35:09.303Z,11.53
2018-12-19T10:37:37.890Z,9.13
2018-12-19T10:40:08.920Z,10.23
2018-12-19T10:45:39.243Z,9.88
2018-12-19T10:48:25.754Z,13.75
2018-12-19T10:50:56.377Z,9.60
2018-12-19T10:53:26.939Z,15.50
2018-12-19T10:56:00.367Z,12.45
2018-12-19T10:58:31.038Z,8.75
2018-12-19T11:01:21.350Z,9.38
2018-12-19T11:03:52.330Z,9.88
2018-12-19T11:15:11.818Z,8.95
2018-12-19T11:17:49.143Z,7.62
2018-12-19T11:23:32.595Z,12.50
2018-12-19T11:29:03.467Z,8.98
2018-12-19T11:31:34.143Z,9.83
2018-12-19T11:37:13.418Z,7.63
2018-12-19T11:42:36.962Z,8.67
2018-12-19T11:45:04.889Z,8.63
2018-12-19T11:50:28.764Z,11.23
2018-12-19T11:53:02.306Z,4.67
2018-12-19T11:55:29.772Z,5.57
2018-12-19T11:57:57.216Z,4.63
2018-12-19T12:00:24.686Z,6.77
2018-12-19T12:02:52.122Z,7.63
2018-12-19T12:05:19.594Z,6.03
2018-12-19T12:07:47.038Z,4.20
2018-12-19T12:10:27.105Z,6.67
2018-12-19T12:12:54.546Z,4.87
2018-12-19T12:15:21.995Z,6.57
2018-12-19T12:17:55.115Z,6.30
2018-12-19T12:20:45.637Z,7.60
2018-12-19T12:23:13.087Z,4.57
2018-12-19T12:25:40.523Z,4.20
2018-12-19T12:28:07.959Z,6.17
2018-12-19T12:30:35.409Z,7.07
2018-12-19T12:33:02.873Z,8.63
2018-12-19T12:35:33.527Z,4.60
2018-12-19T12:38:10.763Z,7.20
2018-12-19T12:49:29.289Z,7.25
2018-12-19T12:52:11.492Z,4.85
2018-12-19T12:57:41.728Z,7.15
2018-12-19T13:00:09.375Z,7.73
2018-12-19T13:02:42.888Z,4.15
2018-12-19T13:05:13.593Z,7.12
2018-12-19T13:07:57.461Z,6.15
2018-12-19T13:10:39.527Z,7.67
2018-12-19T13:13:28.381Z,4.05
2018-12-19T13:16:16.200Z,4.87
2018-12-19T13:18:49.922Z,5.83
2018-12-19T13:24:16.647Z,8.70
2018-12-19T13:32:43.593Z,9.03
2018-12-19T13:35:14.977Z,4.95
2018-12-19T13:37:45.699Z,4.60
2018-12-19T13:40:25.684Z,5.60
2018-12-19T13:43:12.161Z,3.27
2018-12-19T13:48:50.686Z,5.00
2018-12-19T13:51:24.579Z,5.33
2018-12-19T13:53:55.218Z,7.45
2018-12-19T13:59:24.138Z,6.22
2018-12-19T14:07:49.829Z,4.72
2018-12-19T14:13:34.800Z,7.47
2018-12-19T14:16:02.230Z,7.85
2018-12-19T14:18:44.361Z,7.12
2018-12-19T14:21:28.903Z,3.95
2018-12-19T14:32:52.956Z,7.35
2018-12-19T14:35:22.783Z,8.08
2018-12-19T14:38:02.677Z,6.12
2018-12-19T14:40:31.924Z,8.58
2018-12-19T14:48:53.080Z,5.75
2018-12-19T14:51:26.541Z,5.53
2018-12-19T14:59:46.271Z,9.80
2018-12-19T15:02:20.142Z,7.20
2018-12-19T15:05:00.269Z,4.37
2018-12-19T15:10:37.031Z,4.53
2018-12-19T15:13:12.994Z,5.55
2018-12-19T15:18:40.266Z,6.30
2018-12-19T15:24:06.058Z,4.85
2018-12-19T15:29:35.836Z,4.75
2018-12-19T15:32:22.556Z,5.97
2018-12-19T15:35:12.974Z,4.47
2018-12-19T15:43:39.172Z,7.22
2018-12-19T15:49:19.407Z,6.33
2018-12-19T15:51:57.220Z,10.10
2018-12-19T16:03:16.203Z,8.35
2018-12-19T16:06:00.501Z,7.42
2018-12-19T16:08:31.744Z,8.18
2018-12-19T16:11:04.963Z,7.40
2018-12-19T16:13:42.727Z,6.58
2018-12-19T16:19:10.228Z,7.97
2018-12-19T16:21:56.673Z,5.15
2018-12-19T16:24:29.922Z,9.70
2018-12-19T16:27:03.530Z,9.95
2018-12-19T16:29:50.169Z,6.78
2018-12-19T16:41:17.202Z,8.65
2018-12-19T16:43:45.573Z,11.20
2018-12-19T16:46:16.591Z,7.55
2018-12-19T16:48:45.559Z,8.63
2018-12-19T16:51:16.554Z,10.60
2018-12-19T16:53:47.536Z,10.50
2018-12-19T16:59:13.595Z,7.97
2018-12-19T17:01:44.798Z,8.05
2018-12-19T17:04:15.851Z,10.90
2018-12-19T17:06:49.494Z,16.05
2018-12-19T17:09:20.627Z,9.18
2018-12-19T17:11:51.554Z,8.15
2018-12-19T17:14:20.473Z,10.65
2018-12-19T17:16:49.388Z,8.43
2018-12-19T17:19:22.843Z,10.98
2018-12-19T17:21:57.282Z,9.50
2018-12-19T17:24:41.019Z,7.22
2018-12-19T17:27:14.978Z,8.48
2018-12-19T17:29:55.201Z,15.85
2018-12-19T17:32:25.790Z,13.62
2018-12-19T17:37:51.848Z,9.70
2018-12-19T17:40:25.392Z,9.10
2018-12-19T17:42:59.538Z,9.60
2018-12-19T17:45:29.789Z,10.15
2018-12-19T17:47:58.774Z,9.33
2018-12-19T17:50:33.268Z,9.33
2018-12-19T17:53:04.414Z,8.88
2018-12-19T17:55:35.489Z,9.05
2018-12-19T17:58:09.120Z,7.95
2018-12-19T18:03:36.113Z,11.33
2018-12-19T18:06:09.157Z,11.10
2018-12-19T18:08:42.862Z,18.00
2018-12-19T18:11:13.295Z,17.20
2018-12-19T18:13:47.172Z,12.68
2018-12-19T18:16:15.730Z,10.68
2018-12-19T18:18:46.609Z,9.25
2018-12-19T18:21:15.636Z,10.00
2018-12-19T18:23:44.296Z,10.10
2018-12-19T18:26:18.138Z,11.90
2018-12-19T18:28:48.516Z,9.63
2018-12-19T18:31:19.465Z,12.30
2018-12-19T18:33:48.314Z,10.78
2018-12-19T18:36:19.300Z,10.40
2018-12-19T18:38:53.209Z,8.88
2018-12-19T18:41:26.337Z,10.95
2018-12-19T18:43:56.723Z,13.53
2018-12-19T18:46:27.711Z,9.43
2018-12-19T18:49:00.930Z,10.30
2018-12-19T18:51:32.175Z,9.93
2018-12-19T18:54:01.051Z,11.00
2018-12-19T18:56:32.062Z,10.43
2018-12-19T18:59:03.334Z,11.40
2018-12-19T19:01:32.466Z,9.58
2018-12-19T19:04:03.484Z,11.50
2018-12-19T19:06:34.261Z,11.68
2018-12-19T19:09:05.466Z,11.25
2018-12-19T19:11:34.306Z,12.75
2018-12-19T19:14:08.083Z,9.20
2018-12-19T19:16:39.066Z,13.53
2018-12-19T19:19:12.602Z,12.20
2018-12-19T19:21:41.685Z,11.63
2018-12-19T19:24:15.221Z,11.95
2018-12-19T19:26:46.293Z,15.43
2018-12-19T19:32:12.615Z,12.80
2018-12-19T19:34:46.711Z,16.27
2018-12-19T19:37:17.923Z,16.57
2018-12-19T19:39:51.639Z,12.93
2018-12-19T19:42:22.454Z,16.60
2018-12-19T19:44:53.521Z,14.43
2018-12-19T19:47:26.877Z,14.70
2018-12-19T19:49:57.896Z,15.95
2018-12-19T19:52:31.575Z,16.90
2018-12-19T19:55:02.957Z,15.68
2018-12-19T19:57:32.026Z,16.90
2018-12-19T20:02:56.159Z,14.20
2018-12-19T20:05:32.075Z,15.23
2018-12-19T20:08:02.478Z,13.30
2018-12-19T20:10:33.724Z,17.20
2018-12-19T20:13:02.463Z,15.63
2018-12-19T20:15:33.505Z,16.07
2018-12-19T20:18:07.359Z,17.05
2018-12-19T20:20:38.354Z,15.08
2018-12-19T20:23:07.217Z,16.80
2018-12-19T20:25:41.187Z,15.05
2018-12-19T20:28:10.439Z,17.35
2018-12-19T20:30:46.198Z,17.62
2018-12-19T20:33:17.573Z,16.10
2018-12-19T20:35:51.457Z,18.82
2018-12-19T20:38:27.473Z,19.25
2018-12-19T20:40:58.701Z,16.97
2018-12-19T20:43:32.557Z,21.68
2018-12-19T20:46:01.575Z,16.35
2018-12-19T20:48:32.383Z,19.35
2018-12-19T20:51:01.139Z,17.25
2018-12-19T20:53:32.180Z,21.70
2018-12-19T20:56:03.936Z,15.03
2018-12-19T20:58:32.112Z,16.67
2018-12-19T21:01:01.385Z,13.40
2018-12-19T21:03:31.902Z,17.35
2018-12-19T21:06:03.001Z,18.50
2018-12-19T21:08:36.834Z,13.90
2018-12-19T21:11:07.894Z,15.70
2018-12-19T21:13:36.965Z,16.62
2018-12-19T21:16:07.922Z,16.73
2018-12-19T21:18:42.868Z,15.85
2018-12-19T21:21:16.192Z,15.72
2018-12-19T21:23:47.382Z,15.38
2018-12-19T21:26:16.418Z,13.03
2018-12-19T21:28:54.244Z,17.32
2018-12-19T21:31:25.743Z,15.50
2018-12-19T21:33:59.971Z,15.08
2018-12-19T21:36:30.464Z,12.55
2018-12-19T21:39:01.211Z,11.93
2018-12-19T21:41:32.043Z,11.00
2018-12-19T21:44:03.246Z,13.28
2018-12-19T21:46:34.075Z,13.15
2018-12-19T21:49:07.592Z,15.98
2018-12-19T21:51:37.015Z,14.55
2018-12-19T21:54:14.994Z,14.33
2018-12-19T21:56:46.365Z,12.82
2018-12-19T21:59:19.830Z,12.03
2018-12-19T22:01:51.138Z,21.10
2018-12-19T22:04:24.499Z,15.55
2018-12-19T22:06:55.721Z,17.67
2018-12-19T22:09:29.350Z,25.25
2018-12-19T22:12:00.442Z,18.50
2018-12-19T22:14:31.406Z,18.30
2018-12-19T22:17:08.035Z,20.37
2018-12-19T22:19:41.945Z,14.93
2018-12-19T22:22:11.196Z,17.17
2018-12-19T22:24:40.236Z,18.32
2018-12-19T22:27:14.241Z,17.90
2018-12-19T22:29:45.475Z,17.77
2018-12-19T22:32:19.255Z,15.00
2018-12-19T22:34:50.413Z,16.07
2018-12-19T22:37:24.353Z,17.37
2018-12-19T22:39:58.361Z,14.65
2018-12-19T22:42:41.661Z,18.40
2018-12-19T22:45:12.763Z,18.62
2018-12-19T22:47:46.231Z,14.47
2018-12-19T22:50:20.116Z,12.18
2018-12-19T22:53:00.197Z,15.35
2018-12-19T23:01:38.831Z,11.85
2018-12-19T23:07:14.933Z,17.48
2018-12-19T23:12:51.555Z,15.18
2018-12-19T23:15:24.516Z,18.67
2018-12-19T23:21:09.477Z,15.75
2018-12-19T23:23:40.026Z,16.40
2018-12-19T23:26:19.698Z,17.07
2018-12-19T23:34:49.233Z,17.12
2018-12-19T23:37:37.870Z,20.15
2018-12-19T23:40:11.344Z,19.73
2018-12-19T23:48:31.316Z,19.80
2018-12-19T23:53:54.422Z,14.47
2018-12-19T23:56:27.736Z,18.27
2018-12-19T23:58:55.163Z,19.75
